createdAt,value
2016-07-11T13:56:34.574Z,42.13
2016-07-11T14:06:40.903Z,41.11
2016-07-11T14:07:42.012Z,34.67
2016-07-11T14:08:35.420Z,33.02
2016-07-11T14:09:39.692Z,33.14
2016-07-11T14:10:42.274Z,33.44
2016-07-11T14:11:36.707Z,33.54
2016-07-11T14:12:38.489Z,33.26
2016-07-11T14:13:38.352Z,32.5
2016-07-11T14:14:35.105Z,31.41
2016-07-11T14:15:41.725Z,30.35
2016-07-11T14:16:35.319Z,30.25
2016-07-11T14:17:35.582Z,30.84
2016-07-11T14:18:37.969Z,30.76
2016-07-11T14:19:36.356Z,31.35
2016-07-11T14:20:37.368Z,30.47
2016-07-11T14:21:39.681Z,30.38
2016-07-11T14:22:35.315Z,30.18
2016-07-11T14:23:35.075Z,30.19
2016-07-11T14:24:35.157Z,31.85
2016-07-11T14:25:35.683Z,30.3
2016-07-11T14:26:35.115Z,29.21
2016-07-11T14:27:35.378Z,30.4
2016-07-11T14:28:37.547Z,30.3
2016-07-11T14:29:35.228Z,30.21
2016-07-11T14:30:43.862Z,30.41
2016-07-11T14:31:43.221Z,30.02
2016-07-11T14:32:43.951Z,30.02
2016-07-11T14:33:44.093Z,29.43
2016-07-11T14:34:43.328Z,28.24
2016-07-11T14:35:43.470Z,28.45
2016-07-11T14:36:44.682Z,29.72
2016-07-11T14:37:46.157Z,29.72
2016-07-11T14:38:46.373Z,29.34
2016-07-11T14:39:46.649Z,28.85
2016-07-11T14:40:46.589Z,29.74
2016-07-11T14:41:47.133Z,28.75
2016-07-11T14:42:46.384Z,29.63
2016-07-11T14:43:48.574Z,29.53
2016-07-11T14:44:46.443Z,29.24
2016-07-11T14:45:46.473Z,28.95
2016-07-11T14:46:46.488Z,28.36
2016-07-11T14:47:46.499Z,28.45
2016-07-11T14:48:46.502Z,27.96
2016-07-11T14:49:46.687Z,29.34
2016-07-11T14:50:46.538Z,27.27
2016-07-11T14:51:46.894Z,28.16
2016-07-11T14:52:47.268Z,27.08
2016-07-11T14:53:46.570Z,27.86
2016-07-11T14:54:46.588Z,28.06
2016-07-11T14:55:46.600Z,28.65
2016-07-11T14:56:46.615Z,27.57
2016-07-11T14:57:46.543Z,26.68
2016-07-11T14:58:46.574Z,25.6
2016-07-11T14:59:46.657Z,26.09
2016-07-11T15:00:47.293Z,27.08
2016-07-11T15:01:46.679Z,27.86
2016-07-11T15:02:46.698Z,26.98
2016-07-11T15:03:46.729Z,28.16
2016-07-11T15:04:46.716Z,27.96
2016-07-11T15:05:46.712Z,26.98
2016-07-11T15:06:46.748Z,26.29
2016-07-11T15:07:46.761Z,27.06
2016-07-11T15:08:46.773Z,26.77
2016-07-11T15:09:46.759Z,27.06
2016-07-11T15:10:46.800Z,27.45
2016-07-11T15:11:46.733Z,27.06
2016-07-11T15:12:46.725Z,27.16
2016-07-11T15:13:46.859Z,28.36
2016-07-11T15:14:47.554Z,28.26
2016-07-11T15:15:46.849Z,28.85
2016-07-11T15:16:47.638Z,28.45
2016-07-11T15:17:46.889Z,27.37
2016-07-11T15:18:46.906Z,27.67
2016-07-11T15:19:46.892Z,27.37
2016-07-11T15:20:47.074Z,27.96
2016-07-11T15:21:46.917Z,27.57
2016-07-11T15:22:47.022Z,26.58
2016-07-11T15:23:46.998Z,27.26
2016-07-11T15:24:47.719Z,26.88
2016-07-11T15:25:46.924Z,26.98
2016-07-11T15:26:47.015Z,27.17
2016-07-11T15:27:47.779Z,27.47
2016-07-11T15:28:47.031Z,25.89
2016-07-11T15:29:47.045Z,25.7
2016-07-11T15:30:47.763Z,25.88
2016-07-11T15:31:47.800Z,26.28
2016-07-11T15:32:47.109Z,25.88
2016-07-11T15:33:47.100Z,26.57
2016-07-11T15:34:47.135Z,27.06
2016-07-11T15:35:47.146Z,26.57
2016-07-11T15:36:47.137Z,26.57
2016-07-11T15:37:47.170Z,27.06
2016-07-11T15:38:47.141Z,26.97
2016-07-11T15:39:47.178Z,26.97
2016-07-11T15:40:47.167Z,27.66
2016-07-11T15:41:47.206Z,27.36
2016-07-11T15:42:47.214Z,27.56
2016-07-11T15:43:47.231Z,27.85
2016-07-11T15:44:47.244Z,28.05
2016-07-11T15:45:47.232Z,27.45
2016-07-11T15:46:48.028Z,27.26
2016-07-11T15:47:47.278Z,28.74
2016-07-11T15:48:47.292Z,28.34
2016-07-11T15:49:48.029Z,27.16
2016-07-11T15:50:48.081Z,27.16
2016-07-11T15:51:47.334Z,28.03
2016-07-11T15:52:47.343Z,27.94
2016-07-11T15:53:47.335Z,27.05
2016-07-11T15:54:47.479Z,28.42
2016-07-11T15:55:47.424Z,28.13
2016-07-11T15:56:47.571Z,28.03
2016-07-11T15:57:47.721Z,28.82
2016-07-11T15:58:47.596Z,28.92
2016-07-11T15:59:47.702Z,28.23
2016-07-11T16:00:47.616Z,28.13
2016-07-11T16:01:47.747Z,28.33
2016-07-11T16:02:48.381Z,28.63
2016-07-11T16:03:48.329Z,28.52
2016-07-11T16:04:47.822Z,28.42
2016-07-11T16:05:47.856Z,27.25
2016-07-11T16:06:47.528Z,27.25
2016-07-11T17:24:27.457Z,34.49
2016-07-11T17:25:27.389Z,35.08
2016-07-11T17:26:27.452Z,35.17
2016-07-11T17:27:27.347Z,35.27
2016-07-11T17:28:30.599Z,34.69
2016-07-11T17:29:28.708Z,34.49
2016-07-11T17:30:28.709Z,35.06
2016-07-11T17:31:27.548Z,34.88
2016-07-11T17:32:27.356Z,34.57
2016-07-11T17:33:27.375Z,34.86
2016-07-11T17:34:27.392Z,34.1
2016-07-11T17:35:27.719Z,33.98
2016-07-11T17:36:27.835Z,34.38
2016-07-11T17:37:27.758Z,34.08
2016-07-11T17:38:27.625Z,34.18
2016-07-11T17:39:27.814Z,34.18
2016-07-11T17:40:27.833Z,33.59
2016-07-11T17:41:27.970Z,33.69
2016-07-11T17:42:27.741Z,34.2
2016-07-11T17:43:27.861Z,34.67
2016-07-11T17:44:28.645Z,34.67
2016-07-11T17:45:27.805Z,34.57
2016-07-11T17:46:28.746Z,34.47
2016-07-11T17:47:27.883Z,34.96
2016-07-11T17:48:27.856Z,35.16
2016-07-11T17:49:28.518Z,35.06
2016-07-11T17:50:28.023Z,34.96
2016-07-11T17:51:27.905Z,35.16
2016-07-11T17:52:27.868Z,35.06
2016-07-11T17:53:27.909Z,34.86
2016-07-11T17:54:27.904Z,34.86
2016-07-11T17:55:27.927Z,34.96
2016-07-11T17:56:28.017Z,35.65
2016-07-11T17:57:27.945Z,35.25
2016-07-11T17:58:27.947Z,35.75
2016-07-11T17:59:28.048Z,35.55
2016-07-11T18:00:28.024Z,35.55
2016-07-11T18:01:28.005Z,35.75
2016-07-11T18:02:27.681Z,36.53
2016-07-11T18:03:27.935Z,35.94
2016-07-11T18:04:28.023Z,36.33
2016-07-11T18:05:28.802Z,35.85
2016-07-11T18:06:28.069Z,36.24
2016-07-11T18:07:28.124Z,35.73
2016-07-11T18:08:28.166Z,36.12
2016-07-11T18:09:27.906Z,36.41
2016-07-11T18:10:28.036Z,36.12
2016-07-11T18:11:28.159Z,36.12
2016-07-11T18:12:28.224Z,36.51
2016-07-11T18:13:28.884Z,36.41
2016-07-11T18:14:28.185Z,36.8
2016-07-11T18:15:30.110Z,36.8
2016-07-11T18:16:32.643Z,36.71
2016-07-11T18:17:29.863Z,36.8
2016-07-11T18:18:30.406Z,37.08
2016-07-11T18:19:28.179Z,37.08
2016-07-11T18:20:29.344Z,37.08
2016-07-11T18:21:30.168Z,36.98
2016-07-11T18:22:28.224Z,37.19
2016-07-11T18:23:27.941Z,37.37
2016-07-11T18:24:28.077Z,37.27
2016-07-11T18:25:28.222Z,37.57
2016-07-11T18:26:28.363Z,37.37
2016-07-11T18:27:28.206Z,37.57
2016-07-11T18:28:28.303Z,37.67
2016-07-11T18:29:29.164Z,37.96
2016-07-11T18:30:28.073Z,37.96
2016-07-11T18:31:29.315Z,37.96
2016-07-11T18:32:27.989Z,37.67
2016-07-11T18:33:28.945Z,37.95
2016-07-11T18:34:28.174Z,38.34
2016-07-11T18:35:28.108Z,38.43
2016-07-11T18:36:30.041Z,38.63
2016-07-11T18:37:28.129Z,38.63
2016-07-11T18:38:28.773Z,38.53
2016-07-11T18:39:29.838Z,38.82
2016-07-11T18:40:29.236Z,38.73
2016-07-11T18:41:28.136Z,38.92
2016-07-11T18:42:28.175Z,39.02
2016-07-11T18:43:28.107Z,38.34
2016-07-11T18:44:28.144Z,38.81
2016-07-11T18:45:28.172Z,38.71
2016-07-11T18:46:28.165Z,38.82
2016-07-11T18:47:28.180Z,38.81
2016-07-11T18:48:28.170Z,39
2016-07-11T18:49:28.202Z,38.81
2016-07-11T18:50:28.272Z,38.9
2016-07-11T18:51:28.216Z,39.29
2016-07-11T18:52:28.261Z,38.9
2016-07-11T18:53:28.261Z,39.1
2016-07-11T18:54:28.247Z,39.39
2016-07-11T18:55:28.283Z,39.49
2016-07-11T18:56:28.975Z,39.2
2016-07-11T18:57:28.283Z,39.59
2016-07-11T18:58:28.267Z,39.39
2016-07-11T18:59:28.301Z,39.39
2016-07-11T19:00:28.315Z,39.59
2016-07-11T19:01:28.330Z,39.86
2016-07-11T19:02:28.333Z,39.76
2016-07-11T19:03:28.322Z,39.57
2016-07-11T19:04:28.384Z,39.67
2016-07-11T19:05:28.383Z,39.67
2016-07-11T19:06:28.406Z,39.96
2016-07-11T19:07:28.392Z,39.96
2016-07-11T19:08:28.424Z,40.45
2016-07-11T19:09:28.407Z,40.25
2016-07-11T19:10:28.423Z,40.16
2016-07-11T19:11:28.409Z,40.16
2016-07-11T19:12:28.442Z,40.45
2016-07-11T19:13:28.437Z,40.55
2016-07-11T19:14:28.468Z,41.11
2016-07-11T19:15:28.499Z,41.11
2016-07-11T19:16:28.489Z,41.21
2016-07-11T19:17:28.472Z,41.11
2016-07-11T19:18:28.482Z,41.02
2016-07-11T19:19:28.493Z,41.11
2016-07-11T19:20:28.504Z,41.31
2016-07-11T19:21:28.535Z,41.31
2016-07-11T19:22:28.546Z,41.21
2016-07-11T19:23:29.316Z,41.11
2016-07-11T19:24:29.309Z,40.72
2016-07-11T19:25:28.753Z,41.09
2016-07-11T19:26:28.569Z,41.21
2016-07-11T19:27:28.598Z,40.63
2016-07-11T19:28:28.607Z,40.6
2016-07-11T19:29:28.598Z,40.41
2016-07-11T19:30:28.631Z,41.28
2016-07-11T19:31:28.661Z,41.19
2016-07-11T19:32:28.649Z,40.53
2016-07-11T19:33:28.661Z,40.5
2016-07-11T19:34:28.671Z,41.09
2016-07-11T19:35:28.657Z,41.19
2016-07-11T19:36:28.711Z,41.09
2016-07-11T19:37:28.702Z,41.09
2016-07-11T19:38:29.442Z,41.19
2016-07-11T19:39:28.749Z,40.99
2016-07-11T19:40:28.751Z,40.99
2016-07-11T19:41:28.720Z,40.99
2016-07-11T19:42:28.772Z,40.99
2016-07-11T19:43:28.762Z,41.09
2016-07-11T19:44:29.499Z,41.09
2016-07-11T19:45:28.812Z,41.28
2016-07-11T19:46:28.820Z,41.19
2016-07-11T19:47:28.825Z,41.28
2016-07-11T19:48:28.817Z,41.28
2016-07-11T19:49:28.845Z,41.28
2016-07-11T19:50:28.832Z,41.17
2016-07-11T19:51:28.841Z,41.19
2016-07-11T19:52:28.887Z,41.19
2016-07-11T19:53:28.790Z,41.36
2016-07-11T19:54:29.582Z,41.17
2016-07-11T19:55:28.860Z,41.36
2016-07-11T19:56:28.891Z,41.56
2016-07-11T19:57:28.904Z,41.56
2016-07-11T19:58:28.915Z,41.46
2016-07-11T19:59:28.900Z,41.46
2016-07-11T20:00:28.932Z,41.75
2016-07-11T20:01:29.076Z,42.24
2016-07-11T20:02:28.932Z,41.75
2016-07-11T20:03:29.725Z,42.24
2016-07-11T20:04:28.958Z,42.14
2016-07-11T20:05:28.962Z,41.85
2016-07-11T20:06:28.970Z,41.85
2016-07-11T20:07:29.005Z,41.95
2016-07-11T20:08:28.984Z,41.75
2016-07-11T20:09:29.021Z,41.46
2016-07-11T20:10:29.035Z,41.46
2016-07-11T20:11:29.046Z,41.44
2016-07-11T20:12:29.817Z,41.93
2016-07-11T20:13:29.800Z,41.54
2016-07-11T20:14:29.098Z,41.27
2016-07-11T20:15:29.811Z,41.46
2016-07-11T20:16:29.094Z,41.46
2016-07-11T20:17:29.106Z,41.75
2016-07-11T20:18:29.096Z,41.54
2016-07-11T20:19:29.146Z,41.35
2016-07-11T20:20:29.157Z,41.25
2016-07-11T20:21:29.124Z,41.35
2016-07-11T20:22:29.151Z,41.25
2016-07-11T20:23:29.189Z,41.63
2016-07-11T20:24:29.172Z,41.54
2016-07-11T20:25:29.158Z,41.54
2016-07-11T20:26:29.198Z,41.93
2016-07-11T20:27:29.186Z,42.41
2016-07-11T20:28:29.233Z,42.41
2016-07-11T20:29:29.927Z,42.02
2016-07-11T20:30:29.210Z,41.71
2016-07-11T20:31:29.167Z,42.22
2016-07-11T20:32:30.103Z,42.32
2016-07-11T20:33:29.239Z,42.32
2016-07-11T20:34:29.254Z,42.3
2016-07-11T20:35:29.234Z,42.69
2016-07-11T20:36:29.270Z,42.69
2016-07-11T20:37:29.280Z,42.88
2016-07-11T20:38:29.290Z,42.79
2016-07-11T20:39:29.300Z,42.79
2016-07-11T20:40:30.058Z,43.18
2016-07-11T20:41:29.351Z,43.08
2016-07-11T20:42:29.375Z,43.18
2016-07-11T20:43:29.367Z,43.08
2016-07-11T20:44:29.392Z,43.37
2016-07-11T20:45:29.401Z,43.18
2016-07-11T20:46:30.091Z,43.27
2016-07-11T20:47:29.378Z,43.08
2016-07-11T20:48:29.408Z,43.08
2016-07-11T20:49:29.395Z,43.27
2016-07-11T20:50:29.354Z,43.57
2016-07-11T20:51:29.421Z,43.57
2016-07-11T20:52:29.466Z,43.85
2016-07-11T20:53:29.555Z,43.95
2016-07-11T20:54:30.225Z,43.57
2016-07-11T20:55:29.476Z,43.74
2016-07-11T20:56:29.506Z,43.85
2016-07-11T20:57:29.542Z,43.57
2016-07-11T20:58:29.514Z,44.34
2016-07-11T20:59:29.538Z,43.85
2016-07-11T21:00:30.281Z,44.15
2016-07-11T21:01:29.561Z,43.85
2016-07-11T21:02:29.537Z,44.03
2016-07-11T21:03:29.559Z,43.95
2016-07-11T21:04:29.569Z,43.84
2016-07-11T21:05:29.583Z,43.84
2016-07-11T21:06:29.649Z,44.13
2016-07-11T21:07:29.665Z,44.23
2016-07-11T21:08:29.623Z,44.03
2016-07-11T21:09:29.584Z,44.03
2016-07-11T21:10:29.890Z,43.84
